Terminal Aerodrome Forecast
Issued by NWS Wichita, KS

Home | Current Version | Previous Version | Graphics & Text | Print | Product List | Glossary On
Versions: 1 2 3 4 5 6 7 8 9 10 11 12
000
FTUS43 KICT 111100
TAFICT
TAF
KICT 111120Z 1112/1212 16011KT P6SM SKC
     FM111500 19014G21KT P6SM SKC
     FM111900 19017G25KT P6SM SKC
     FM120100 17011KT P6SM SKC=

USA.gov is the U.S. government's official web portal to all federal, state and local government web resources and services.